Quincy, Illinois
Current Conditions -  °F | °C
As of 5:54 AM on Saturday 20 Dec 2014 (Local Time) from KUIN Reporting Station
Haze Haze  
Wind Chill: 27°   Ceiling: 1300
Heat Index: 32°   Visibility: 6mi
Dew Point: 27°   Wind: 5mph
Humidity: 82%   Direction: 150°SSE
Pressure: 30.23"   Gusts: NA
Location:  39.94°N, 91.39°W
Report Text: KUIN 201154Z AUTO 15004KT 6SM HZ OVC013 00/M03 A3023 RMK AO2 SLP244 T00001028 10000 21006 56002
Loading
Personal Weather Stations






























Interactive Weather Map New forecast layout! Learn more

10-Day Weather Forecast

Advertisements
Track Severe Weather on mobile